Time;durP1;ratioP1;P1;durP2;ratioP2;P2;SDS_P1;SDS_P2;PMS_P1;PMS_P2;Temp;Humidity;BMP_temperature;BMP_pressure;BME280_temperature;BME280_humidity;BME280_pressure;Samples;Min_cycle;Max_cycle;Signal;HPM_P1;HPM_P2
2022/08/11 00:00:44;;;;;;;5.13;0.90;;;19.70;81.00;;;;;;5070224;28;20518;-90
2022/08/11 00:03:14;;;;;;;3.67;1.10;;;19.70;81.20;;;;;;5067096;28;20480;-90
2022/08/11 00:05:50;;;;;;;2.50;0.80;;;19.70;81.30;;;;;;5072309;28;20491;-90
2022/08/11 00:08:27;;;;;;;4.63;0.60;;;19.70;81.40;;;;;;5066758;28;20526;-89
2022/08/11 00:11:06;;;;;;;3.92;0.70;;;19.60;81.60;;;;;;5070630;28;20028;-89
2022/08/11 00:13:44;;;;;;;1.60;0.60;;;19.60;81.70;;;;;;5070634;28;20031;-90
2022/08/11 00:16:19;;;;;;;3.90;0.80;;;19.60;82.00;;;;;;5056991;28;20111;-89
2022/08/11 00:18:48;;;;;;;3.95;0.70;;;19.50;82.20;;;;;;5068479;28;20032;-90
2022/08/11 00:21:15;;;;;;;4.40;0.90;;;19.50;83.00;;;;;;5070606;28;20017;-90
2022/08/11 00:23:46;;;;;;;4.25;0.90;;;19.50;82.60;;;;;;5068863;28;20025;-89
2022/08/11 00:26:15;;;;;;;3.63;1.13;;;19.50;82.80;;;;;;5070042;28;20511;-90
2022/08/11 00:28:42;;;;;;;2.90;0.75;;;19.50;83.00;;;;;;5068518;28;20051;-90
2022/08/11 00:31:18;;;;;;;6.68;1.00;;;19.40;83.20;;;;;;5061932;28;20032;-90
2022/08/11 00:33:45;;;;;;;3.10;0.80;;;19.40;83.40;;;;;;5069778;28;20020;-90
2022/08/11 00:36:16;;;;;;;4.53;1.02;;;19.40;83.60;;;;;;5067002;28;20123;-90
2022/08/11 00:38:44;;;;;;;3.25;0.85;;;19.40;83.90;;;;;;5060644;28;20059;-89
2022/08/11 00:41:35;;;;;;;3.15;0.90;;;19.30;84.00;;;;;;5085912;28;20059;-90
2022/08/11 00:44:03;;;;;;;2.67;0.95;;;19.30;84.20;;;;;;5067793;28;20479;-89
2022/08/11 00:47:09;;;;;;;2.22;0.70;;;19.30;84.60;;;;;;5069966;28;20117;-91
2022/08/11 00:49:53;;;;;;;3.17;0.90;;;19.30;84.80;;;;;;5070150;28;20086;-91
2022/08/11 00:52:38;;;;;;;5.07;1.13;;;19.20;85.10;;;;;;5081668;28;20089;-89
2022/08/11 00:55:37;;;;;;;2.88;1.05;;;19.20;85.30;;;;;;5080927;28;20032;-91
2022/08/11 00:58:33;;;;;;;1.73;0.80;;;19.10;85.50;;;;;;5080639;28;20025;-90
2022/08/11 01:01:22;;;;;;;1.92;1.00;;;19.10;85.80;;;;;;5070777;28;20774;-89
2022/08/11 01:04:17;;;;;;;2.75;0.93;;;19.10;86.00;;;;;;5078811;28;20021;-90
2022/08/11 01:07:21;;;;;;;8.75;1.27;;;19.00;86.20;;;;;;5062838;28;20071;-90
2022/08/11 01:10:12;;;;;;;2.38;0.70;;;19.00;86.60;;;;;;5067429;28;20033;-91
2022/08/11 01:12:47;;;;;;;2.20;0.80;;;19.00;86.80;;;;;;5061671;28;20028;-91
2022/08/11 01:15:31;;;;;;;2.67;0.95;;;18.90;87.20;;;;;;5086046;28;20024;-90
2022/08/11 01:18:38;;;;;;;5.93;0.95;;;18.90;87.50;;;;;;5072435;28;20031;-90
2022/08/11 01:21:19;;;;;;;3.15;1.42;;;18.90;87.70;;;;;;4985707;28;20446;-90
2022/08/11 01:24:18;;;;;;;2.72;0.95;;;18.90;88.10;;;;;;4975374;28;20534;-90
2022/08/11 01:27:03;;;;;;;2.35;1.30;;;18.80;88.30;;;;;;5070481;28;20081;-90
2022/08/11 01:29:59;;;;;;;2.58;1.02;;;18.80;88.80;;;;;;5066490;28;20066;-90
2022/08/11 01:32:56;;;;;;;4.88;1.45;;;18.80;89.00;;;;;;5084275;28;20020;-90
2022/08/11 01:36:03;;;;;;;3.22;0.95;;;18.70;89.30;;;;;;5073128;28;20091;-89
2022/08/11 01:38:54;;;;;;;3.17;1.00;;;18.70;89.70;;;;;;5066927;28;20068;-89
2022/08/11 01:45:06;;;;;;;7.85;1.55;;;18.60;90.10;;;;;;5080365;28;20046;-89
2022/08/11 01:47:50;;;;;;;2.03;0.70;;;18.60;90.20;;;;;;5062800;28;20112;-90
2022/08/11 01:50:45;;;;;;;4.63;1.50;;;18.50;90.40;;;;;;5066513;28;20074;-90
2022/08/11 01:53:31;;;;;;;2.97;0.90;;;18.50;90.50;;;;;;5072237;28;20028;-90
2022/08/11 01:56:01;;;;;;;1.95;1.08;;;18.50;90.60;;;;;;5064765;28;20023;-90
2022/08/11 01:58:44;;;;;;;3.03;1.25;;;18.50;90.80;;;;;;5072881;28;20035;-93
2022/08/11 02:01:31;;;;;;;4.57;0.70;;;18.40;90.90;;;;;;5070022;28;20083;-89
2022/08/11 02:04:09;;;;;;;3.55;1.40;;;18.40;91.10;;;;;;5071553;28;20021;-90
2022/08/11 02:06:55;;;;;;;3.50;1.20;;;18.40;91.20;;;;;;5067905;28;20043;-90
2022/08/11 02:09:46;;;;;;;6.88;1.10;;;18.30;91.30;;;;;;5071476;28;20082;-89
2022/08/11 02:12:20;;;;;;;3.00;1.10;;;18.40;91.50;;;;;;5064623;28;20031;-90
2022/08/11 02:15:13;;;;;;;3.90;1.23;;;18.30;91.60;;;;;;5084202;28;20020;-91
2022/08/11 02:17:58;;;;;;;1.63;0.80;;;18.30;91.80;;;;;;5077825;28;20028;-90
2022/08/11 02:23:56;;;;;;;2.70;1.10;;;18.20;92.10;;;;;;5079721;28;20036;-90
2022/08/11 02:26:27;;;;;;;3.92;1.08;;;18.20;92.20;;;;;;5059992;28;20024;-87
2022/08/11 02:29:18;;;;;;;3.72;1.40;;;18.20;92.50;;;;;;5058901;28;20032;-87
2022/08/11 02:35:11;;;;;;;4.40;1.50;;;18.10;92.70;;;;;;5084013;28;20051;-88
2022/08/11 02:38:01;;;;;;;3.55;1.40;;;18.10;92.90;;;;;;5084113;28;20395;-89
2022/08/11 02:40:51;;;;;;;4.28;1.33;;;18.10;93.20;;;;;;5078210;28;20117;-90
2022/08/11 02:43:40;;;;;;;3.17;1.40;;;18.10;93.20;;;;;;5066954;28;21852;-90
2022/08/11 02:46:17;;;;;;;2.42;1.40;;;18.00;93.50;;;;;;5082843;28;20028;-89
2022/08/11 02:52:13;;;;;;;1.90;1.33;;;18.00;93.70;;;;;;5080502;28;20170;-89
2022/08/11 02:54:48;;;;;;;3.28;1.50;;;18.00;94.00;;;;;;5084951;28;20036;-89
2022/08/11 02:57:40;;;;;;;5.22;1.20;;;18.00;94.10;;;;;;5065798;28;20024;-90
2022/08/11 03:00:11;;;;;;;3.97;1.80;;;18.00;94.30;;;;;;5070451;28;20034;-89
2022/08/11 03:02:45;;;;;;;2.40;1.38;;;18.00;94.50;;;;;;5068691;28;20491;-89
2022/08/11 03:05:16;;;;;;;2.47;1.20;;;17.90;94.60;;;;;;5061011;28;20031;-89
2022/08/11 03:08:04;;;;;;;3.25;1.20;;;17.90;94.80;;;;;;5077875;28;20111;-89
2022/08/11 03:17:02;;;;;;;3.72;1.40;;;17.80;95.40;;;;;;5079695;28;20046;-88
2022/08/11 03:20:13;;;;;;;6.32;1.10;;;17.80;95.60;;;;;;5063075;28;20021;-90
2022/08/11 03:23:02;;;;;;;4.32;1.42;;;17.80;95.80;;;;;;5059267;28;20043;-89
2022/08/11 03:25:53;;;;;;;2.50;1.45;;;17.70;96.00;;;;;;5078688;28;20044;-90
2022/08/11 03:28:44;;;;;;;3.10;1.58;;;17.70;96.30;;;;;;5063866;28;20032;-90
2022/08/11 03:31:23;;;;;;;3.92;1.38;;;17.60;96.40;;;;;;5060001;28;20170;-89
2022/08/11 03:34:02;;;;;;;2.28;1.30;;;17.60;96.70;;;;;;5063956;28;20020;-90
2022/08/11 03:36:45;;;;;;;4.03;1.85;;;17.60;96.90;;;;;;5066862;28;20048;-89
2022/08/11 03:39:23;;;;;;;2.45;1.63;;;17.60;97.10;;;;;;5079847;28;20041;-90
2022/08/11 03:42:14;;;;;;;3.97;1.60;;;17.50;97.20;;;;;;5084484;28;20077;-90
2022/08/11 03:45:08;;;;;;;4.13;1.83;;;17.50;97.40;;;;;;5067336;28;20081;-90
2022/08/11 03:48:03;;;;;;;3.70;1.80;;;17.50;97.80;;;;;;5083580;28;20438;-89
2022/08/11 03:50:54;;;;;;;5.07;1.73;;;17.50;98.00;;;;;;5067679;28;20093;-89
2022/08/11 03:53:41;;;;;;;5.78;1.60;;;17.40;98.10;;;;;;5064516;28;20415;-88
2022/08/11 03:56:12;;;;;;;3.90;1.63;;;17.40;98.40;;;;;;5067316;28;20376;-90
2022/08/11 03:59:05;;;;;;;3.08;1.80;;;17.40;98.70;;;;;;5078216;28;20059;-90
2022/08/11 04:02:18;;;;;;;5.15;1.67;;;17.40;98.80;;;;;;5076248;28;20051;-89
2022/08/11 04:04:55;;;;;;;5.95;1.90;;;17.40;98.90;;;;;;5070807;28;20032;-89
2022/08/11 04:07:47;;;;;;;3.78;1.58;;;17.40;99.10;;;;;;5082781;28;20492;-89
2022/08/11 04:10:27;;;;;;;3.90;1.83;;;17.30;99.20;;;;;;5077578;28;20036;-87
2022/08/11 04:13:11;;;;;;;4.45;1.83;;;17.30;99.40;;;;;;5081980;28;20112;-90
2022/08/11 04:16:01;;;;;;;3.50;1.98;;;17.40;99.60;;;;;;5074534;28;20033;-90
2022/08/11 04:18:54;;;;;;;4.03;1.70;;;17.30;99.70;;;;;;5065419;28;20772;-89
2022/08/11 04:21:40;;;;;;;5.32;2.20;;;17.30;99.90;;;;;;5074794;28;20029;-89
2022/08/11 04:24:33;;;;;;;4.72;2.47;;;17.30;99.90;;;;;;5064480;28;20374;-90
2022/08/11 04:27:27;;;;;;;5.28;2.13;;;17.30;99.90;;;;;;5065099;28;20087;-89
2022/08/11 04:30:15;;;;;;;6.25;2.25;;;17.30;99.90;;;;;;5067869;28;20039;-89
2022/08/11 04:33:11;;;;;;;4.50;2.30;;;17.30;99.90;;;;;;5073045;28;20066;-90
2022/08/11 04:36:20;;;;;;;5.82;2.38;;;17.30;99.90;;;;;;5052606;28;20024;-90
2022/08/11 04:39:24;;;;;;;4.03;1.88;;;17.30;99.90;;;;;;5068663;28;20483;-92
2022/08/11 04:45:10;;;;;;;3.45;2.00;;;17.20;99.90;;;;;;5069677;28;20592;-92
2022/08/11 05:07:27;;;;;;;4.82;1.83;;;17.20;99.90;;;;;;5084054;28;20127;-91
2022/08/11 05:10:16;;;;;;;4.55;2.75;;;17.30;99.90;;;;;;5077357;28;20052;-92
2022/08/11 05:12:49;;;;;;;5.10;2.70;;;17.30;99.90;;;;;;5070394;28;20046;-92
2022/08/11 05:36:37;;;;;;;5.63;2.40;;;17.70;99.90;;;;;;5078483;28;20108;-94
2022/08/11 05:58:40;;;;;;;6.43;2.75;;;18.40;99.90;;;;;;5088998;28;20085;-94
2022/08/11 06:01:07;;;;;;;5.10;2.72;;;18.60;99.90;;;;;;5072299;28;20020;-93
2022/08/11 06:04:13;;;;;;;4.97;2.92;;;18.70;99.90;;;;;;5070889;28;20028;-95
2022/08/11 06:06:24;;;;;;;7.28;3.72;;;18.80;99.90;;;;;;5089702;28;20027;-94
2022/08/11 06:08:55;;;;;;;7.03;3.47;;;19.00;99.90;;;;;;5073051;28;20036;-96
2022/08/11 06:11:23;;;;;;;6.77;3.33;;;19.10;99.90;;;;;;5072525;28;20050;-94
2022/08/11 06:13:49;;;;;;;7.03;3.50;;;19.20;99.70;;;;;;5072408;28;20024;-95
2022/08/11 06:16:22;;;;;;;5.40;3.08;;;19.30;99.40;;;;;;5072126;28;20052;-94
2022/08/11 06:18:48;;;;;;;4.18;2.83;;;19.40;99.10;;;;;;5072479;28;20032;-96
2022/08/11 06:21:15;;;;;;;8.45;3.15;;;19.50;99.00;;;;;;5074026;28;20021;-92
2022/08/11 06:23:42;;;;;;;5.20;3.13;;;19.60;98.70;;;;;;5069798;28;20024;-91
2022/08/11 06:26:09;;;;;;;5.63;2.72;;;19.70;98.60;;;;;;5069994;28;20077;-91
2022/08/11 06:28:39;;;;;;;6.20;2.78;;;19.90;98.40;;;;;;5064971;28;20056;-90
2022/08/11 06:31:17;;;;;;;6.15;2.95;;;20.00;98.10;;;;;;5073707;28;20052;-91
2022/08/11 06:33:49;;;;;;;5.85;2.67;;;20.10;97.70;;;;;;5067414;28;20020;-92
2022/08/11 06:36:27;;;;;;;6.93;2.55;;;20.20;97.50;;;;;;5079825;28;20024;-91
2022/08/11 06:39:22;;;;;;;6.22;2.53;;;20.30;97.20;;;;;;5072068;28;20105;-90
2022/08/11 06:41:57;;;;;;;3.72;2.13;;;20.40;97.00;;;;;;5067215;28;20038;-90
2022/08/11 06:44:31;;;;;;;4.35;2.30;;;20.60;96.80;;;;;;5068915;28;20078;-91
2022/08/11 06:47:06;;;;;;;4.20;2.25;;;20.70;96.40;;;;;;5071770;28;20032;-91
2022/08/11 06:52:36;;;;;;;4.30;2.15;;;20.90;95.80;;;;;;5091143;28;20030;-91
2022/08/11 06:55:11;;;;;;;5.88;2.35;;;21.10;95.50;;;;;;5073202;28;20024;-86
2022/08/11 07:00:27;;;;;;;5.22;2.33;;;21.20;94.70;;;;;;5085351;28;20534;-88
2022/08/11 07:03:07;;;;;;;4.75;2.17;;;21.30;94.40;;;;;;5075543;28;20158;-91
2022/08/11 07:05:36;;;;;;;6.38;2.10;;;21.40;94.20;;;;;;5073157;28;20032;-91
2022/08/11 07:15:40;;;;;;;3.00;1.50;;;21.70;93.30;;;;;;5080061;28;20074;-90
2022/08/11 07:17:22;;;;;;;3.55;1.23;;;21.90;92.50;;;;;;5083043;28;20048;-91
2022/08/11 07:31:08;;;;;;;4.30;1.30;;;22.60;90.90;;;;;;5078770;28;20085;-91
2022/08/11 07:33:56;;;;;;;4.20;1.40;;;22.80;90.70;;;;;;5072736;28;20024;-90
2022/08/11 07:36:26;;;;;;;4.70;1.30;;;23.00;90.20;;;;;;5081709;28;20039;-90
2022/08/11 07:38:55;;;;;;;3.20;1.35;;;23.10;90.00;;;;;;5082468;28;20055;-89
2022/08/11 07:41:23;;;;;;;3.35;1.13;;;23.20;89.50;;;;;;5081037;28;20032;-90
2022/08/11 07:43:53;;;;;;;3.17;0.88;;;23.30;88.50;;;;;;5071907;28;20031;-90
2022/08/11 07:54:47;;;;;;;7.97;1.20;;;23.70;85.80;;;;;;5075399;28;20089;-89
2022/08/11 08:19:16;;;;;;;3.55;1.20;;;24.50;78.10;;;;;;5091050;28;20035;-89
2022/08/11 08:21:43;;;;;;;4.50;0.93;;;24.70;77.70;;;;;;5063751;28;20044;-90
2022/08/11 08:24:09;;;;;;;3.20;0.82;;;24.80;77.60;;;;;;5055696;28;20051;-89
2022/08/11 08:32:06;;;;;;;3.72;1.15;;;25.10;75.70;;;;;;5082114;28;20077;-89
2022/08/11 08:34:33;;;;;;;5.10;0.90;;;25.20;75.40;;;;;;5063918;28;21439;-89
2022/08/11 08:36:59;;;;;;;2.80;0.90;;;25.30;75.70;;;;;;5066964;28;20143;-87
2022/08/11 08:39:25;;;;;;;3.30;1.10;;;25.40;74.80;;;;;;5068374;28;20084;-89
2022/08/11 08:41:57;;;;;;;1.60;0.93;;;25.50;73.90;;;;;;5067590;28;20025;-90
2022/08/11 08:44:24;;;;;;;4.95;1.08;;;25.50;73.40;;;;;;5070469;28;20039;-88
2022/08/11 08:46:58;;;;;;;3.65;1.30;;;25.60;73.50;;;;;;5058914;28;20044;-89
2022/08/11 08:49:34;;;;;;;2.30;0.90;;;25.80;73.00;;;;;;5062548;28;20492;-90
2022/08/11 08:52:03;;;;;;;4.65;0.90;;;25.90;71.90;;;;;;5062947;28;20025;-88
2022/08/11 08:54:37;;;;;;;4.07;1.10;;;25.90;71.60;;;;;;5064893;28;20043;-88
2022/08/11 08:57:05;;;;;;;4.80;0.90;;;26.00;71.30;;;;;;5070856;28;20028;-90
2022/08/11 08:59:38;;;;;;;4.40;1.10;;;26.10;70.80;;;;;;5067660;28;20024;-89
2022/08/11 09:02:05;;;;;;;5.18;1.23;;;26.20;70.20;;;;;;5069705;28;20090;-89
2022/08/11 09:04:31;;;;;;;4.47;1.35;;;26.30;69.80;;;;;;5066901;28;20401;-90
2022/08/11 09:07:08;;;;;;;1.77;0.90;;;26.40;68.70;;;;;;5067027;28;20035;-89
2022/08/11 09:09:34;;;;;;;4.22;0.95;;;26.50;68.40;;;;;;5068369;28;20034;-87
2022/08/11 09:12:04;;;;;;;2.03;0.88;;;26.60;67.80;;;;;;5074248;28;20020;-89
2022/08/11 09:17:26;;;;;;;3.50;1.08;;;26.70;66.30;;;;;;5093195;28;20039;-88
2022/08/11 09:20:04;;;;;;;3.47;0.98;;;26.70;65.90;;;;;;5070830;28;20187;-88
2022/08/11 09:28:10;;;;;;;4.47;1.17;;;27.00;63.90;;;;;;5084090;28;20078;-89
2022/08/11 09:30:36;;;;;;;3.92;1.00;;;27.00;63.30;;;;;;5070531;28;20036;-88
2022/08/11 09:33:04;;;;;;;4.35;0.70;;;27.10;63.00;;;;;;5072721;28;20032;-86
2022/08/11 09:35:35;;;;;;;4.00;0.85;;;27.20;62.70;;;;;;5069640;28;20118;-88
2022/08/11 09:40:48;;;;;;;1.88;0.90;;;27.50;62.30;;;;;;5049296;28;20052;-89
2022/08/11 09:46:02;;;;;;;2.28;0.88;;;27.60;60.80;;;;;;5042553;28;20464;-89
2022/08/11 09:48:33;;;;;;;3.65;0.90;;;27.70;60.30;;;;;;5055699;28;20056;-87
2022/08/11 09:51:00;;;;;;;3.03;0.77;;;27.80;59.60;;;;;;5053649;28;20043;-88
2022/08/11 09:53:30;;;;;;;2.50;0.93;;;27.80;59.50;;;;;;5063169;28;20028;-87
2022/08/11 09:55:56;;;;;;;2.28;0.77;;;27.90;58.50;;;;;;5055822;28;20029;-87
2022/08/11 09:58:23;;;;;;;3.58;0.88;;;28.00;58.60;;;;;;5053400;28;20075;-88
2022/08/11 10:00:50;;;;;;;5.63;0.85;;;28.10;58.00;;;;;;5048825;28;20032;-88
2022/08/11 10:03:22;;;;;;;2.63;0.90;;;28.20;57.40;;;;;;5048327;28;20037;-89
2022/08/11 10:08:41;;;;;;;4.93;1.13;;;28.30;55.50;;;;;;5048167;28;20063;-89
2022/08/11 10:11:11;;;;;;;2.85;0.90;;;28.20;54.70;;;;;;5045730;28;20036;-89
2022/08/11 10:16:28;;;;;;;3.17;0.80;;;28.40;54.80;;;;;;5044840;28;20023;-92
2022/08/11 10:18:57;;;;;;;4.28;0.82;;;28.40;54.70;;;;;;5048664;28;20167;-91
2022/08/11 10:21:41;;;;;;;5.03;1.15;;;28.60;54.00;;;;;;5048074;28;20029;-90
2022/08/11 10:26:57;;;;;;;2.47;0.85;;;28.80;53.10;;;;;;5040023;28;20286;-89
2022/08/11 10:35:07;;;;;;;4.55;1.10;;;28.90;52.00;;;;;;5035760;28;20050;-90
2022/08/11 10:37:35;;;;;;;3.50;0.80;;;29.00;52.20;;;;;;5047571;28;20056;-89
2022/08/11 10:40:04;;;;;;;1.35;0.80;;;29.00;52.10;;;;;;5063011;28;20044;-89
2022/08/11 10:48:03;;;;;;;2.05;0.85;;;29.30;51.50;;;;;;5062675;28;20082;-88
2022/08/11 10:58:50;;;;;;;1.67;0.68;;;29.60;50.60;;;;;;5063876;28;20089;-89
2022/08/11 11:01:25;;;;;;;4.65;1.10;;;29.70;49.90;;;;;;5062630;28;20024;-92
2022/08/11 11:03:58;;;;;;;2.90;0.90;;;29.80;49.60;;;;;;5064707;28;20468;-90
2022/08/11 11:06:43;;;;;;;2.28;0.90;;;29.80;49.70;;;;;;5062470;28;20111;-91
2022/08/11 11:09:17;;;;;;;4.55;1.00;;;29.90;49.20;;;;;;5068066;28;20552;-88
2022/08/11 11:17:55;;;;;;;4.43;0.90;;;30.00;49.10;;;;;;5061099;28;20063;-90
2022/08/11 11:20:29;;;;;;;2.28;0.90;;;30.10;48.90;;;;;;5058386;28;20024;-90
2022/08/11 11:22:59;;;;;;;3.47;0.73;;;30.20;48.80;;;;;;5071504;28;20032;-89
2022/08/11 11:26:05;;;;;;;2.55;0.60;;;30.20;48.30;;;;;;5060968;28;20029;-88
2022/08/11 11:28:49;;;;;;;1.92;0.60;;;30.30;48.30;;;;;;5066602;28;20084;-89
2022/08/11 11:31:24;;;;;;;5.30;0.98;;;30.40;48.30;;;;;;5064412;28;20029;-88
2022/08/11 11:34:38;;;;;;;2.45;0.70;;;30.30;47.50;;;;;;5078073;28;20035;-88
2022/08/11 11:37:05;;;;;;;2.67;0.82;;;30.30;47.20;;;;;;5061642;28;20029;-88
2022/08/11 11:39:31;;;;;;;4.88;0.82;;;30.30;46.90;;;;;;5066352;28;20056;-88
2022/08/11 11:42:02;;;;;;;4.65;0.90;;;30.40;46.90;;;;;;5065807;28;20067;-89
2022/08/11 11:44:28;;;;;;;3.20;1.05;;;30.50;46.80;;;;;;5066408;28;20021;-89
2022/08/11 11:46:54;;;;;;;2.60;0.70;;;30.70;47.20;;;;;;5060278;28;20440;-90
2022/08/11 11:49:23;;;;;;;2.53;0.70;;;30.80;46.90;;;;;;5058426;28;20119;-89
2022/08/11 11:51:51;;;;;;;4.13;0.82;;;30.80;46.50;;;;;;5050509;28;20106;-87
2022/08/11 11:54:22;;;;;;;1.95;0.80;;;30.80;47.00;;;;;;5033657;28;20032;-90
2022/08/11 11:56:52;;;;;;;2.22;0.70;;;30.90;47.10;;;;;;5039479;28;20100;-90
2022/08/11 12:02:06;;;;;;;2.05;0.60;;;31.20;45.40;;;;;;5049246;28;20097;-89
2022/08/11 12:04:32;;;;;;;2.40;0.80;;;31.30;45.70;;;;;;5064903;28;20119;-89
2022/08/11 12:08:09;;;;;;;2.13;0.80;;;31.40;45.20;;;;;;5050402;28;20114;-90
2022/08/11 12:09:46;;;;;;;3.38;0.68;;;31.40;45.10;;;;;;5045385;28;20486;-89
2022/08/11 12:14:56;;;;;;;1.65;0.73;;;31.50;45.00;;;;;;5050339;28;20557;-89
2022/08/11 12:17:23;;;;;;;2.83;0.60;;;31.60;44.30;;;;;;5050701;28;20092;-89
2022/08/11 12:19:49;;;;;;;3.58;0.70;;;31.60;44.00;;;;;;5049162;28;20033;-89
2022/08/11 12:27:45;;;;;;;1.30;0.70;;;31.70;43.80;;;;;;5048658;28;20075;-91
2022/08/11 12:30:12;;;;;;;2.30;0.80;;;31.70;43.80;;;;;;5048725;28;20071;-89
2022/08/11 12:32:42;;;;;;;3.55;0.65;;;31.70;43.30;;;;;;5046130;28;20029;-89
2022/08/11 12:35:08;;;;;;;2.03;0.70;;;31.60;43.40;;;;;;5048340;28;20028;-90
2022/08/11 12:37:37;;;;;;;1.55;0.73;;;31.70;43.70;;;;;;5049294;28;20029;-91
2022/08/11 12:45:41;;;;;;;1.35;0.60;;;31.80;43.50;;;;;;5058407;28;20464;-90
2022/08/11 12:54:20;;;;;;;1.95;0.60;;;31.70;42.20;;;;;;5059953;28;20044;-89
2022/08/11 13:05:10;;;;;;;2.97;0.60;;;31.60;42.30;;;;;;5064424;28;20035;-90
2022/08/11 13:07:39;;;;;;;2.05;0.60;;;31.60;42.10;;;;;;5071458;28;20484;-89
2022/08/11 13:10:07;;;;;;;2.33;0.60;;;31.60;42.50;;;;;;5062472;28;20059;-90
2022/08/11 13:12:49;;;;;;;1.45;0.60;;;31.70;42.30;;;;;;5065647;28;20434;-91
2022/08/11 13:15:24;;;;;;;1.88;0.52;;;31.70;42.00;;;;;;5063153;28;20142;-89
2022/08/11 13:17:54;;;;;;;2.10;0.85;;;31.70;42.20;;;;;;5062309;28;20554;-90
2022/08/11 13:20:23;;;;;;;2.53;0.63;;;31.70;42.00;;;;;;5064792;28;20032;-90
2022/08/11 13:22:51;;;;;;;2.05;0.60;;;31.80;41.90;;;;;;5066370;28;20025;-88
2022/08/11 13:25:19;;;;;;;1.42;0.50;;;31.80;41.40;;;;;;5065845;28;20609;-89
2022/08/11 13:27:47;;;;;;;1.55;0.63;;;31.90;41.40;;;;;;5065751;28;20040;-89
2022/08/11 13:33:00;;;;;;;1.85;0.88;;;31.90;41.50;;;;;;5071589;28;20036;-89
2022/08/11 13:35:27;;;;;;;2.72;0.70;;;31.90;41.60;;;;;;5056997;28;20028;-88
2022/08/11 13:37:55;;;;;;;7.50;0.75;;;31.90;41.10;;;;;;5073372;28;20031;-88
2022/08/11 13:40:21;;;;;;;1.45;0.63;;;32.00;41.50;;;;;;5067904;28;20052;-89
2022/08/11 13:42:48;;;;;;;2.90;0.50;;;32.00;40.80;;;;;;5067239;28;20051;-89
2022/08/11 13:45:15;;;;;;;2.78;0.50;;;32.00;41.10;;;;;;5067925;28;20385;-89
2022/08/11 13:47:41;;;;;;;2.17;0.68;;;32.00;41.30;;;;;;5058521;28;20025;-89
2022/08/11 13:50:08;;;;;;;2.03;0.65;;;32.10;40.60;;;;;;5066164;28;22089;-90
2022/08/11 13:52:38;;;;;;;4.35;0.70;;;32.20;40.00;;;;;;5057769;28;20055;-89
2022/08/11 13:55:09;;;;;;;1.35;0.45;;;32.30;40.20;;;;;;5061252;28;20025;-89
2022/08/11 13:57:36;;;;;;;2.75;0.60;;;32.40;40.30;;;;;;5056393;28;20021;-91
2022/08/11 14:00:08;;;;;;;3.05;0.70;;;32.50;40.60;;;;;;5069108;28;20085;-90
2022/08/11 14:02:40;;;;;;;2.53;0.77;;;32.60;40.80;;;;;;5066736;28;20389;-89
2022/08/11 14:05:16;;;;;;;;;;;32.60;40.80;;;;;;5072588;28;20123;-89
2022/08/11 14:07:51;;;;;;;3.08;0.55;;;32.60;40.00;;;;;;5084745;28;19912;-89
2022/08/11 14:10:19;;;;;;;5.00;0.60;;;32.50;39.50;;;;;;5071908;28;20037;-89
2022/08/11 14:13:40;;;;;;;1.23;0.50;;;32.40;39.60;;;;;;5065686;28;20051;-89
2022/08/11 14:15:45;;;;;;;1.33;0.57;;;32.40;39.80;;;;;;5051887;28;20039;-88
2022/08/11 14:18:24;;;;;;;3.45;0.60;;;32.40;39.80;;;;;;5069004;28;20107;-90
2022/08/11 14:23:46;;;;;;;2.22;0.50;;;32.40;39.80;;;;;;5065925;28;20048;-90
2022/08/11 14:26:27;;;;;;;3.67;0.50;;;32.50;40.20;;;;;;5072676;28;20032;-91
2022/08/11 14:29:01;;;;;;;1.15;0.50;;;32.70;40.30;;;;;;5063704;28;20017;-93
2022/08/11 14:31:29;;;;;;;3.47;0.70;;;32.80;40.20;;;;;;5056904;28;20040;-90
2022/08/11 14:33:56;;;;;;;1.67;0.68;;;33.00;39.90;;;;;;5069973;28;20394;-90
2022/08/11 14:36:25;;;;;;;1.27;0.50;;;33.10;39.70;;;;;;5063419;28;20025;-89
2022/08/11 14:38:52;;;;;;;3.70;0.60;;;33.10;39.50;;;;;;5071328;28;20044;-90
2022/08/11 14:47:05;;;;;;;1.63;0.60;;;33.30;39.50;;;;;;5073891;28;20043;-89
2022/08/11 14:49:36;;;;;;;2.10;0.60;;;33.30;39.20;;;;;;5071143;28;20028;-88
2022/08/11 14:52:14;;;;;;;;;;;33.20;39.50;;;;;;5056184;28;20098;-89
2022/08/11 14:57:38;;;;;;;2.55;0.90;;;33.60;39.60;;;;;;5071875;28;20043;-88
2022/08/11 15:00:06;;;;;;;1.70;0.82;;;33.60;39.20;;;;;;5068739;28;20473;-89
2022/08/11 15:05:24;;;;;;;1.38;0.60;;;33.30;39.70;;;;;;5079519;28;20035;-89
2022/08/11 15:07:51;;;;;;;2.17;0.60;;;33.60;39.40;;;;;;5073075;28;20017;-88
2022/08/11 15:10:18;;;;;;;1.23;0.60;;;33.70;39.00;;;;;;5073201;28;20468;-89
2022/08/11 15:12:44;;;;;;;0.98;0.70;;;33.80;38.70;;;;;;5072321;28;20476;-89
2022/08/11 15:17:58;;;;;;;2.20;0.50;;;33.60;38.80;;;;;;5074445;28;20032;-89
2022/08/11 15:26:02;;;;;;;1.65;0.50;;;33.60;39.60;;;;;;5060067;28;20083;-89
2022/08/11 15:46:00;;;;;;;1.00;0.50;;;33.50;38.40;;;;;;5089813;28;20035;-90
2022/08/11 15:48:34;;;;;;;2.05;0.60;;;33.40;38.70;;;;;;5093949;28;20104;-90
2022/08/11 15:51:16;;;;;;;1.33;0.50;;;33.40;38.70;;;;;;5073609;28;20115;-89
2022/08/11 15:54:10;;;;;;;1.45;0.60;;;33.40;38.50;;;;;;5068953;28;20038;-89
2022/08/11 15:56:42;;;;;;;1.85;0.60;;;33.40;38.30;;;;;;5077809;28;20024;-89
2022/08/11 16:04:41;;;;;;;1.65;0.60;;;35.00;37.70;;;;;;5101191;28;20038;-89
2022/08/11 16:07:12;;;;;;;3.92;0.68;;;35.40;37.20;;;;;;5086380;28;20042;-90
2022/08/11 16:09:44;;;;;;;2.25;0.60;;;35.60;37.10;;;;;;5081671;28;20102;-90
2022/08/11 16:12:32;;;;;;;2.58;0.50;;;35.50;37.30;;;;;;5081096;28;20038;-89
2022/08/11 16:17:54;;;;;;;4.53;0.60;;;34.60;37.60;;;;;;5087809;28;20150;-89
2022/08/11 16:20:24;;;;;;;2.70;1.05;;;34.10;37.70;;;;;;5073707;28;20035;-89
2022/08/11 16:22:53;;;;;;;2.73;0.60;;;33.60;38.20;;;;;;5073189;28;20032;-89
2022/08/11 16:25:22;;;;;;;2.53;0.68;;;33.20;38.50;;;;;;5075559;28;20024;-89
2022/08/11 16:28:07;;;;;;;3.65;0.60;;;32.80;39.00;;;;;;5071349;28;20028;-90
2022/08/11 16:30:35;;;;;;;1.55;0.50;;;32.70;38.90;;;;;;5062038;28;20048;-91
2022/08/11 16:33:03;;;;;;;3.45;0.52;;;32.40;39.30;;;;;;5073908;28;20047;-92
2022/08/11 16:38:34;;;;;;;1.20;0.50;;;32.00;39.90;;;;;;5077419;28;20047;-91
2022/08/11 16:46:58;;;;;;;2.95;0.50;;;31.80;39.80;;;;;;5072164;28;20491;-91
2022/08/11 16:47:00;;;;;;;1.88;0.50;;;31.40;39.60;;;;;;5088800;28;20034;-92
2022/08/11 16:49:30;;;;;;;1.52;0.60;;;31.20;39.80;;;;;;5077425;28;20085;-91
2022/08/11 16:51:56;;;;;;;1.88;0.60;;;31.10;39.90;;;;;;5073533;28;20052;-92
2022/08/11 16:54:22;;;;;;;2.83;0.60;;;31.00;40.20;;;;;;5056841;28;20133;-92
2022/08/11 16:56:52;;;;;;;1.50;0.55;;;30.90;40.50;;;;;;5073234;28;20028;-91
2022/08/11 16:59:22;;;;;;;1.52;0.50;;;30.90;40.70;;;;;;5063292;28;20035;-92
2022/08/11 17:01:52;;;;;;;1.98;0.50;;;30.80;40.50;;;;;;5057953;28;20025;-90
2022/08/11 17:13:07;;;;;;;2.60;0.80;;;30.50;41.00;;;;;;5076747;28;20499;-88
2022/08/11 17:18:41;;;;;;;1.67;0.50;;;30.40;41.50;;;;;;5094650;28;20453;-93
2022/08/11 17:21:15;;;;;;;1.67;0.50;;;30.30;41.50;;;;;;5103225;28;20020;-92
2022/08/11 17:23:45;;;;;;;1.27;0.50;;;30.30;41.30;;;;;;5072377;28;20052;-93
2022/08/11 17:26:14;;;;;;;3.13;0.80;;;30.20;41.30;;;;;;5074404;28;20036;-91
2022/08/11 17:28:41;;;;;;;1.77;0.60;;;30.10;41.40;;;;;;5066251;28;20049;-93
2022/08/11 17:36:43;;;;;;;3.58;0.50;;;29.90;41.90;;;;;;5089583;28;20027;-92
2022/08/11 17:39:10;;;;;;;2.67;0.60;;;29.90;42.00;;;;;;5082004;28;20047;-93
2022/08/11 17:49:51;;;;;;;1.52;0.55;;;29.60;43.10;;;;;;5072530;28;20086;-93
2022/08/11 18:00:34;;;;;;;1.23;0.40;;;29.30;43.80;;;;;;5071064;28;20043;-91
2022/08/11 18:05:48;;;;;;;3.03;0.60;;;29.30;43.90;;;;;;5065160;28;20508;-93
